Time;durP1;ratioP1;P1;durP2;ratioP2;P2;SDS_P1;SDS_P2;PMS_P1;PMS_P2;Temp;Humidity;BMP_temperature;BMP_pressure;BME280_temperature;BME280_humidity;BME280_pressure;Samples;Min_cycle;Max_cycle;Signal;HPM_P1;HPM_P2
2023/08/01 00:00:05;;;;;;;171.00;164.32;;;17.20;78.60;;;;;;5110431;27;20035;-74
2023/08/01 00:02:31;;;;;;;126.03;121.00;;;17.00;78.50;;;;;;5108570;28;20514;-73
2023/08/01 00:04:57;;;;;;;129.77;124.65;;;17.20;76.00;;;;;;5108580;28;20032;-73
2023/08/01 00:07:22;;;;;;;135.25;130.05;;;17.10;77.40;;;;;;5104399;28;20044;-74
2023/08/01 00:09:48;;;;;;;137.30;132.18;;;17.10;75.90;;;;;;5108423;28;20029;-74
2023/08/01 00:12:14;;;;;;;113.22;108.70;;;17.10;76.10;;;;;;5106355;28;20031;-74
2023/08/01 00:14:40;;;;;;;110.22;105.50;;;17.20;74.50;;;;;;5109221;27;20024;-74
2023/08/01 00:17:06;;;;;;;102.10;98.22;;;17.30;73.50;;;;;;5108036;28;20430;-74
2023/08/01 00:19:31;;;;;;;101.75;97.53;;;17.40;72.40;;;;;;5109668;28;20110;-74
2023/08/01 00:21:57;;;;;;;93.22;89.55;;;17.50;72.00;;;;;;5107902;28;20059;-74
2023/08/01 00:24:23;;;;;;;91.40;87.70;;;17.70;70.80;;;;;;5109669;28;20036;-74
2023/08/01 00:26:48;;;;;;;87.38;83.93;;;17.80;70.40;;;;;;5108060;28;20039;-74
2023/08/01 00:29:14;;;;;;;92.25;88.75;;;17.80;69.60;;;;;;5109991;28;20069;-74
2023/08/01 00:31:40;;;;;;;85.03;81.50;;;17.70;69.80;;;;;;5110403;28;20032;-74
2023/08/01 00:34:05;;;;;;;87.30;83.50;;;17.80;69.30;;;;;;5092276;28;20208;-74
2023/08/01 00:36:31;;;;;;;89.22;85.78;;;17.80;69.10;;;;;;5108366;28;20447;-74
2023/08/01 00:38:57;;;;;;;93.53;89.75;;;17.70;69.30;;;;;;5108285;28;20512;-74
2023/08/01 00:41:23;;;;;;;92.38;88.68;;;17.70;69.60;;;;;;5109426;28;20031;-74
2023/08/01 00:43:49;;;;;;;94.47;90.80;;;17.70;70.30;;;;;;5105138;28;20040;-74
2023/08/01 00:46:14;;;;;;;82.38;78.97;;;17.60;70.30;;;;;;5106543;28;20119;-74
2023/08/01 00:48:40;;;;;;;91.13;87.22;;;17.60;71.00;;;;;;5107540;28;20062;-74
2023/08/01 00:51:08;;;;;;;84.85;81.43;;;17.60;71.50;;;;;;5107245;28;20059;-74
2023/08/01 00:53:35;;;;;;;89.05;85.63;;;17.50;71.90;;;;;;5072725;28;20489;-74
2023/08/01 00:56:00;;;;;;;105.85;101.72;;;17.60;71.50;;;;;;5106543;28;20047;-74
2023/08/01 00:58:26;;;;;;;86.28;82.93;;;17.60;71.10;;;;;;5089041;28;20043;-74
2023/08/01 01:00:52;;;;;;;86.18;82.63;;;17.60;71.40;;;;;;5107867;28;20073;-74
2023/08/01 01:03:18;;;;;;;88.07;84.75;;;17.60;71.20;;;;;;5107160;28;20036;-74
2023/08/01 01:06:00;;;;;;;84.22;80.72;;;17.60;71.00;;;;;;5106610;28;20066;-74
2023/08/01 01:08:27;;;;;;;87.57;83.78;;;17.60;70.90;;;;;;5106493;28;20102;-74
2023/08/01 01:10:52;;;;;;;91.78;88.05;;;17.70;71.40;;;;;;5104545;28;20024;-74
2023/08/01 01:13:18;;;;;;;92.05;88.53;;;17.60;72.50;;;;;;5090782;28;20028;-74
2023/08/01 01:15:43;;;;;;;95.25;91.68;;;17.50;72.20;;;;;;5105030;28;20046;-74
2023/08/01 01:18:09;;;;;;;109.22;104.72;;;17.40;72.90;;;;;;5104047;28;20047;-74
2023/08/01 01:20:36;;;;;;;96.18;92.38;;;17.40;72.70;;;;;;5105299;28;20073;-74
2023/08/01 01:23:05;;;;;;;114.10;109.63;;;17.40;73.10;;;;;;5103311;28;20079;-74
2023/08/01 01:25:32;;;;;;;104.63;100.32;;;17.40;73.60;;;;;;5085652;28;20036;-74
2023/08/01 01:27:59;;;;;;;105.40;101.00;;;17.30;73.00;;;;;;5100381;27;20061;-74
2023/08/01 01:30:27;;;;;;;109.10;104.57;;;17.30;73.60;;;;;;5107229;28;20023;-74
2023/08/01 01:32:53;;;;;;;101.03;97.03;;;17.30;74.10;;;;;;5101653;28;20744;-74
2023/08/01 01:35:18;;;;;;;112.38;107.88;;;17.30;74.00;;;;;;5106902;28;20024;-74
2023/08/01 01:37:44;;;;;;;172.07;165.45;;;17.30;74.20;;;;;;5103382;28;20104;-72
2023/08/01 01:40:10;;;;;;;192.38;184.75;;;17.30;76.60;;;;;;5105055;28;20032;-74
2023/08/01 01:42:36;;;;;;;170.55;164.15;;;17.00;81.50;;;;;;5089685;28;20031;-74
2023/08/01 01:45:02;;;;;;;176.20;168.85;;;16.70;84.80;;;;;;5102462;28;20134;-74
2023/08/01 01:47:28;;;;;;;165.43;158.65;;;16.50;88.50;;;;;;5106242;28;20061;-74
2023/08/01 01:49:53;;;;;;;186.27;178.95;;;16.50;89.60;;;;;;5103702;28;20366;-73
2023/08/01 01:52:19;;;;;;;197.75;189.60;;;15.90;92.10;;;;;;5106244;28;20110;-73
2023/08/01 01:54:45;;;;;;;220.32;210.90;;;15.70;93.20;;;;;;5105619;28;20100;-73
2023/08/01 01:57:10;;;;;;;262.20;251.10;;;15.60;94.00;;;;;;5090447;28;20054;-73
2023/08/01 01:59:36;;;;;;;264.75;253.85;;;15.60;94.80;;;;;;5109663;28;20035;-73
2023/08/01 02:02:03;;;;;;;277.65;266.58;;;15.50;94.50;;;;;;5105931;28;20457;-73
2023/08/01 02:04:29;;;;;;;320.40;307.08;;;15.50;94.70;;;;;;5108878;28;20517;-74
2023/08/01 02:06:55;;;;;;;287.83;276.17;;;15.40;93.30;;;;;;5105840;28;20043;-74
2023/08/01 02:09:21;;;;;;;291.98;280.35;;;15.40;94.80;;;;;;5106806;28;20454;-74
2023/08/01 02:11:46;;;;;;;339.63;326.05;;;15.30;94.40;;;;;;5108559;28;20077;-73
2023/08/01 02:14:13;;;;;;;305.40;293.40;;;15.80;95.20;;;;;;5105889;28;20075;-73
2023/08/01 02:16:39;;;;;;;287.10;275.80;;;16.30;95.80;;;;;;5106866;28;20046;-73
2023/08/01 02:19:04;;;;;;;299.83;288.15;;;16.40;96.10;;;;;;5089170;28;20035;-73
2023/08/01 02:21:30;;;;;;;249.00;239.27;;;16.40;96.50;;;;;;5107234;28;20438;-74
2023/08/01 02:23:55;;;;;;;267.52;256.85;;;16.20;96.30;;;;;;5089795;28;20046;-74
2023/08/01 02:26:23;;;;;;;294.77;283.17;;;16.30;96.40;;;;;;5107790;28;20110;-74
2023/08/01 02:28:48;;;;;;;220.10;210.25;;;16.30;96.70;;;;;;5105785;28;20432;-74
2023/08/01 02:31:15;;;;;;;224.95;215.60;;;15.80;97.40;;;;;;5086414;28;20090;-73
2023/08/01 02:33:41;;;;;;;234.77;225.75;;;16.10;97.60;;;;;;5105168;27;20034;-73
2023/08/01 02:36:06;;;;;;;307.55;294.63;;;16.20;97.60;;;;;;5107992;28;20437;-73
2023/08/01 02:38:32;;;;;;;236.60;227.00;;;16.10;97.60;;;;;;5105085;28;20409;-73
2023/08/01 02:40:58;;;;;;;207.82;198.18;;;15.80;97.90;;;;;;5105854;27;20371;-73
2023/08/01 02:43:23;;;;;;;267.30;255.88;;;15.70;97.90;;;;;;5107587;27;20582;-73
2023/08/01 02:45:49;;;;;;;265.55;255.18;;;15.60;98.10;;;;;;5104853;28;20039;-74
2023/08/01 02:48:15;;;;;;;257.17;246.88;;;15.60;98.40;;;;;;5107554;28;20023;-73
2023/08/01 02:50:41;;;;;;;246.45;236.57;;;15.50;98.50;;;;;;5107188;28;20031;-73
2023/08/01 02:53:07;;;;;;;271.40;260.73;;;15.80;98.80;;;;;;5106669;28;20667;-73
2023/08/01 02:55:32;;;;;;;249.88;239.25;;;15.60;98.60;;;;;;5105631;28;20456;-73
2023/08/01 02:57:58;;;;;;;281.67;270.38;;;15.80;98.80;;;;;;5087953;28;20053;-74
2023/08/01 03:00:24;;;;;;;259.48;249.07;;;15.90;98.90;;;;;;5104421;28;20118;-73
2023/08/01 03:02:49;;;;;;;250.40;240.18;;;15.70;98.90;;;;;;5104832;28;20386;-75
2023/08/01 03:05:15;;;;;;;262.88;252.60;;;15.80;99.00;;;;;;5087853;28;20042;-76
2023/08/01 03:07:41;;;;;;;237.77;227.88;;;15.70;99.00;;;;;;5103267;28;20063;-76
2023/08/01 03:10:07;;;;;;;210.32;201.65;;;15.70;99.10;;;;;;5104169;28;20036;-76
2023/08/01 03:12:32;;;;;;;251.35;240.75;;;16.00;99.20;;;;;;5106699;28;20027;-75
2023/08/01 03:14:58;;;;;;;238.30;229.00;;;15.90;99.30;;;;;;5086139;28;20032;-76
2023/08/01 03:17:24;;;;;;;216.57;207.88;;;15.90;99.50;;;;;;5107402;28;20028;-76
2023/08/01 03:19:50;;;;;;;239.90;229.85;;;15.70;99.60;;;;;;5105689;28;20039;-76
2023/08/01 03:22:16;;;;;;;212.75;204.13;;;15.90;99.90;;;;;;5105525;28;20032;-76
2023/08/01 03:24:42;;;;;;;208.15;199.68;;;16.10;99.90;;;;;;5105875;28;20033;-75
2023/08/01 03:27:08;;;;;;;231.57;221.40;;;16.00;99.90;;;;;;5105431;28;20032;-75
2023/08/01 03:29:33;;;;;;;214.10;205.35;;;15.90;99.90;;;;;;5106911;28;20122;-75
2023/08/01 03:31:59;;;;;;;216.02;206.80;;;15.90;99.90;;;;;;5104619;28;20114;-75
2023/08/01 03:34:26;;;;;;;242.23;232.57;;;15.90;99.90;;;;;;5102674;28;20043;-75
2023/08/01 03:36:52;;;;;;;242.85;232.77;;;15.80;99.90;;;;;;5103815;28;20036;-75
2023/08/01 03:39:18;;;;;;;216.90;208.02;;;16.10;99.90;;;;;;5107105;28;20054;-75
2023/08/01 03:41:43;;;;;;;239.35;229.95;;;16.00;99.90;;;;;;5109709;28;20038;-75
2023/08/01 03:44:09;;;;;;;234.88;225.60;;;15.90;99.90;;;;;;5103841;28;20091;-75
2023/08/01 03:46:35;;;;;;;227.45;218.40;;;15.90;99.90;;;;;;5085181;28;20036;-75
2023/08/01 03:49:00;;;;;;;257.27;247.18;;;16.00;99.90;;;;;;5106472;28;20456;-76
2023/08/01 03:51:26;;;;;;;240.20;230.48;;;16.20;99.90;;;;;;5087518;28;20603;-75
2023/08/01 03:53:52;;;;;;;301.50;288.92;;;16.00;99.90;;;;;;5104714;28;20435;-75
2023/08/01 03:56:17;;;;;;;243.88;234.05;;;16.10;99.90;;;;;;5110206;28;20144;-74
2023/08/01 03:58:43;;;;;;;263.88;253.68;;;16.00;99.90;;;;;;5088203;28;20165;-75
2023/08/01 04:01:09;;;;;;;269.73;258.92;;;16.10;99.90;;;;;;5088981;28;20036;-75
2023/08/01 04:03:34;;;;;;;299.08;286.58;;;16.00;99.90;;;;;;5104292;28;20032;-75
2023/08/01 04:06:00;;;;;;;238.90;228.60;;;16.10;99.90;;;;;;5107023;28;20481;-75
2023/08/01 04:08:26;;;;;;;323.25;309.60;;;16.10;99.80;;;;;;5105752;28;20533;-75
2023/08/01 04:10:51;;;;;;;255.98;245.60;;;16.10;99.80;;;;;;5106257;28;20099;-75
2023/08/01 04:13:17;;;;;;;307.75;294.33;;;16.20;99.80;;;;;;5106243;28;20027;-75
2023/08/01 04:15:43;;;;;;;248.60;238.10;;;16.10;99.60;;;;;;5088784;28;20028;-75
2023/08/01 04:18:08;;;;;;;268.55;258.10;;;15.90;99.60;;;;;;5104763;28;20032;-75
2023/08/01 04:20:34;;;;;;;270.25;259.35;;;15.90;99.60;;;;;;5106326;28;20039;-75
2023/08/01 04:22:59;;;;;;;260.98;249.40;;;16.00;99.50;;;;;;5105769;28;20032;-74
2023/08/01 04:25:26;;;;;;;268.13;257.20;;;16.00;99.50;;;;;;5106796;28;20449;-75
2023/08/01 04:27:53;;;;;;;291.27;279.45;;;15.90;99.60;;;;;;5106578;28;20027;-74
2023/08/01 04:30:18;;;;;;;246.73;236.68;;;15.90;98.60;;;;;;5109944;28;20019;-74
2023/08/01 04:32:44;;;;;;;258.35;247.60;;;15.70;99.30;;;;;;5088256;28;20028;-75
2023/08/01 04:35:10;;;;;;;309.05;296.38;;;15.70;98.90;;;;;;5109455;28;20024;-74
2023/08/01 04:37:35;;;;;;;322.02;308.60;;;15.70;99.10;;;;;;5107848;28;20494;-75
2023/08/01 04:40:01;;;;;;;292.85;281.48;;;15.50;99.20;;;;;;5107043;28;20051;-75
2023/08/01 04:42:28;;;;;;;246.55;236.35;;;15.50;99.10;;;;;;5109396;28;20497;-75
2023/08/01 04:44:54;;;;;;;255.88;245.52;;;15.40;99.10;;;;;;5090285;28;20115;-75
2023/08/01 04:47:21;;;;;;;239.52;230.40;;;15.30;99.20;;;;;;5106246;28;20190;-75
2023/08/01 04:49:46;;;;;;;249.90;240.00;;;15.20;99.20;;;;;;5106279;28;20516;-74
2023/08/01 04:52:12;;;;;;;245.35;235.35;;;15.20;99.20;;;;;;5106181;28;20040;-75
2023/08/01 04:54:38;;;;;;;273.05;261.40;;;15.20;99.30;;;;;;5091095;28;20042;-74
2023/08/01 04:57:04;;;;;;;247.25;237.57;;;15.20;99.20;;;;;;5068969;28;1137463;-74
2023/08/01 04:59:30;;;;;;;308.35;294.67;;;15.30;99.30;;;;;;5110442;28;20048;-74
2023/08/01 05:01:56;;;;;;;310.92;298.58;;;15.20;99.00;;;;;;5106302;28;20046;-74
2023/08/01 05:04:21;;;;;;;361.27;346.00;;;15.20;99.10;;;;;;5109186;28;20035;-72
2023/08/01 05:06:47;;;;;;;286.80;275.00;;;15.20;98.40;;;;;;5108731;27;20118;-72
2023/08/01 05:09:12;;;;;;;344.52;330.88;;;15.20;99.00;;;;;;5108234;27;20051;-72
2023/08/01 05:11:38;;;;;;;311.95;299.02;;;15.50;99.10;;;;;;5106676;28;20064;-72
2023/08/01 05:14:04;;;;;;;305.00;292.10;;;16.40;99.30;;;;;;5108324;28;20081;-74
2023/08/01 05:16:29;;;;;;;357.90;343.52;;;16.30;99.50;;;;;;5091623;28;20043;-75
2023/08/01 05:18:55;;;;;;;364.98;350.02;;;16.40;99.20;;;;;;5106809;28;20775;-74
2023/08/01 05:21:21;;;;;;;290.38;278.67;;;16.40;99.20;;;;;;5107082;28;20102;-74
2023/08/01 05:23:46;;;;;;;324.95;311.35;;;16.30;99.50;;;;;;5107206;27;20036;-74
2023/08/01 05:26:12;;;;;;;376.23;360.58;;;16.20;98.60;;;;;;5103092;28;20440;-74
2023/08/01 05:28:38;;;;;;;362.25;347.42;;;16.30;98.80;;;;;;5109717;27;20039;-74
2023/08/01 05:31:04;;;;;;;329.60;316.15;;;16.20;99.40;;;;;;5106349;27;20024;-74
2023/08/01 05:33:29;;;;;;;300.45;288.30;;;16.10;99.00;;;;;;5104108;27;20089;-74
2023/08/01 05:35:55;;;;;;;352.63;334.48;;;16.10;98.60;;;;;;5097333;28;20031;-74
2023/08/01 05:38:20;;;;;;;260.52;249.88;;;16.10;97.70;;;;;;5105266;27;20028;-74
2023/08/01 05:40:46;;;;;;;295.83;283.50;;;16.10;98.70;;;;;;5108947;28;20466;-74
2023/08/01 05:43:12;;;;;;;337.33;323.23;;;16.10;98.80;;;;;;5104678;27;20828;-74
2023/08/01 05:45:38;;;;;;;318.00;305.10;;;16.10;98.80;;;;;;5106179;27;20058;-74
2023/08/01 05:48:04;;;;;;;317.67;304.42;;;16.20;98.60;;;;;;5108318;28;20098;-78
2023/08/01 05:50:29;;;;;;;366.88;345.55;;;16.40;98.40;;;;;;5087506;28;20038;-78
2023/08/01 05:52:55;;;;;;;397.42;377.60;;;16.40;97.50;;;;;;5107000;28;20032;-73
2023/08/01 05:55:21;;;;;;;301.48;289.48;;;16.40;98.20;;;;;;5088136;28;20077;-77
2023/08/01 05:57:48;;;;;;;334.77;321.30;;;16.40;97.90;;;;;;5105858;28;20023;-81
2023/08/01 06:00:15;;;;;;;299.70;287.40;;;16.40;98.10;;;;;;5109977;28;20027;-78
2023/08/01 06:02:41;;;;;;;333.10;318.38;;;16.40;98.30;;;;;;5109172;28;20023;-80
2023/08/01 06:05:07;;;;;;;350.15;334.55;;;16.40;97.50;;;;;;5107687;28;20401;-80
2023/08/01 06:07:32;;;;;;;292.75;280.45;;;16.50;97.90;;;;;;5110641;28;20050;-77
2023/08/01 06:09:58;;;;;;;341.73;324.92;;;16.40;97.80;;;;;;5110490;27;20024;-76
2023/08/01 06:12:24;;;;;;;329.67;314.67;;;16.40;96.80;;;;;;5109277;28;20028;-78
2023/08/01 06:14:49;;;;;;;427.38;404.73;;;16.20;96.80;;;;;;5108510;28;20039;-80
2023/08/01 06:17:15;;;;;;;284.42;271.98;;;16.20;98.20;;;;;;5107634;28;20485;-81
2023/08/01 06:19:41;;;;;;;398.02;375.90;;;16.10;97.90;;;;;;5073031;28;20063;-78
2023/08/01 06:22:07;;;;;;;348.25;326.65;;;15.80;97.60;;;;;;5107451;28;20036;-78
2023/08/01 06:24:33;;;;;;;310.52;297.42;;;15.80;96.60;;;;;;5074866;28;20039;-77
2023/08/01 06:26:59;;;;;;;292.25;280.45;;;15.90;97.50;;;;;;5105134;28;20035;-78
2023/08/01 06:29:25;;;;;;;334.98;318.98;;;16.00;98.00;;;;;;5104729;28;20034;-80
2023/08/01 06:31:52;;;;;;;300.23;287.58;;;16.10;98.00;;;;;;5091612;28;20023;-74
2023/08/01 06:34:17;;;;;;;354.20;339.17;;;16.10;98.10;;;;;;5106191;28;20046;-80
2023/08/01 06:36:43;;;;;;;369.33;353.83;;;16.10;97.60;;;;;;5085847;28;20446;-78
2023/08/01 06:39:08;;;;;;;342.70;328.90;;;16.20;97.80;;;;;;5087740;28;20027;-80
2023/08/01 06:41:34;;;;;;;322.80;307.17;;;16.20;97.60;;;;;;5089036;28;20059;-77
2023/08/01 06:44:00;;;;;;;306.58;294.52;;;16.30;96.60;;;;;;5080825;28;20035;-77
2023/08/01 06:46:25;;;;;;;526.40;492.70;;;16.40;97.90;;;;;;5107511;28;20039;-78
2023/08/01 06:48:51;;;;;;;380.25;362.08;;;16.30;96.50;;;;;;5106348;28;20020;-81
2023/08/01 06:51:16;;;;;;;350.17;332.00;;;16.30;96.50;;;;;;5107746;28;20038;-81
2023/08/01 06:53:42;;;;;;;286.35;274.50;;;16.20;96.60;;;;;;5105082;28;20031;-79
2023/08/01 06:56:08;;;;;;;294.67;282.52;;;16.10;97.10;;;;;;5087921;28;20051;-78
2023/08/01 06:58:34;;;;;;;373.65;351.42;;;16.00;97.30;;;;;;5087895;28;20566;-77
2023/08/01 07:00:59;;;;;;;365.42;347.70;;;16.00;96.00;;;;;;5073983;28;20066;-77
2023/08/01 07:03:25;;;;;;;464.00;433.52;;;16.00;95.80;;;;;;5107327;28;20485;-81
2023/08/01 07:05:51;;;;;;;370.42;353.63;;;15.80;95.20;;;;;;5106367;28;20501;-78
2023/08/01 07:08:16;;;;;;;373.33;355.55;;;15.80;96.70;;;;;;5075127;28;20077;-78
2023/08/01 07:10:43;;;;;;;479.23;457.00;;;15.80;95.10;;;;;;5105299;28;20082;-79
2023/08/01 07:13:09;;;;;;;530.90;497.90;;;15.70;95.70;;;;;;5086177;28;20032;-80
2023/08/01 07:15:35;;;;;;;424.05;401.73;;;15.50;94.40;;;;;;5107042;28;20035;-74
2023/08/01 07:18:00;;;;;;;423.27;399.80;;;15.50;94.20;;;;;;5089109;28;20028;-79
2023/08/01 07:20:26;;;;;;;435.42;411.70;;;15.40;93.70;;;;;;5103247;28;20032;-81
2023/08/01 07:22:52;;;;;;;412.92;389.58;;;15.20;92.80;;;;;;5089514;28;20093;-77
2023/08/01 07:25:19;;;;;;;532.90;507.77;;;15.00;93.90;;;;;;5106001;28;20067;-79
2023/08/01 07:27:45;;;;;;;472.08;450.60;;;15.00;94.80;;;;;;5089136;28;20024;-77
2023/08/01 07:30:11;;;;;;;461.63;438.70;;;15.00;95.80;;;;;;5107643;28;20024;-78
2023/08/01 07:32:37;;;;;;;457.17;433.08;;;15.00;93.70;;;;;;5104885;28;20088;-80
2023/08/01 07:35:04;;;;;;;803.10;535.90;;;15.00;92.80;;;;;;5088621;28;20024;-77
2023/08/01 07:37:30;;;;;;;906.22;636.45;;;15.00;93.50;;;;;;5110205;28;20069;-79
2023/08/01 07:39:56;;;;;;;1294.05;779.15;;;15.10;93.80;;;;;;5084773;28;20032;-78
2023/08/01 07:42:23;;;;;;;1190.68;680.72;;;15.10;93.80;;;;;;5108641;28;20099;-77
2023/08/01 07:44:48;;;;;;;1999.90;999.90;;;14.90;92.30;;;;;;5105173;28;20043;-78
2023/08/01 07:47:14;;;;;;;352.70;334.70;;;15.20;92.90;;;;;;5104106;28;20448;-78
2023/08/01 07:49:40;;;;;;;1165.25;655.83;;;15.10;90.90;;;;;;5107155;28;20040;-82
2023/08/01 07:52:06;;;;;;;1999.90;999.90;;;15.60;90.60;;;;;;5106293;28;20039;-81
2023/08/01 07:54:32;;;;;;;1594.18;839.00;;;15.80;89.00;;;;;;5106147;28;20035;-81
2023/08/01 07:56:58;;;;;;;305.52;288.85;;;15.90;88.50;;;;;;5086927;28;20047;-79
2023/08/01 07:59:24;;;;;;;924.78;652.65;;;16.00;86.40;;;;;;5106962;28;20035;-80
2023/08/01 08:01:49;;;;;;;449.90;421.42;;;16.10;87.50;;;;;;5103395;28;20063;-82
2023/08/01 08:04:15;;;;;;;1620.03;860.88;;;16.10;87.60;;;;;;5109681;28;20067;-79
2023/08/01 08:06:41;;;;;;;488.88;462.55;;;15.90;88.30;;;;;;5094072;28;20114;-78
2023/08/01 08:09:07;;;;;;;499.55;471.70;;;15.90;89.30;;;;;;5110218;28;20027;-78
2023/08/01 08:11:33;;;;;;;809.90;544.80;;;16.00;89.40;;;;;;5111106;28;20709;-78
2023/08/01 08:14:00;;;;;;;530.58;496.95;;;16.20;88.80;;;;;;5111041;27;20031;-78
2023/08/01 08:16:26;;;;;;;521.97;495.05;;;16.30;87.20;;;;;;5113050;28;20028;-82
2023/08/01 08:18:51;;;;;;;480.15;456.30;;;16.40;87.10;;;;;;5112246;28;20027;-79
2023/08/01 08:21:17;;;;;;;536.38;509.45;;;16.50;86.30;;;;;;5110882;28;20431;-83
2023/08/01 08:23:43;;;;;;;1999.90;999.90;;;16.70;85.70;;;;;;5110287;28;20062;-78
2023/08/01 08:26:10;;;;;;;416.58;393.67;;;16.80;84.40;;;;;;5110937;28;20397;-78
2023/08/01 08:28:36;;;;;;;1999.90;999.90;;;16.80;83.50;;;;;;5086260;28;20028;-78
2023/08/01 08:31:03;;;;;;;1999.90;999.90;;;16.90;83.10;;;;;;5075324;28;20028;-80
2023/08/01 08:33:29;;;;;;;1999.90;999.90;;;17.20;81.70;;;;;;5106652;28;20110;-78
2023/08/01 08:35:55;;;;;;;1999.90;999.90;;;17.40;82.30;;;;;;5112209;28;20035;-79
2023/08/01 08:38:21;;;;;;;1999.90;999.90;;;17.40;81.00;;;;;;5072306;28;20028;-78
2023/08/01 08:41:07;;;;;;;1168.70;657.55;;;17.30;82.70;;;;;;5108638;28;20046;-83
2023/08/01 08:43:34;;;;;;;1999.90;999.90;;;16.90;84.70;;;;;;5099561;28;20031;-78
2023/08/01 08:46:01;;;;;;;1999.90;999.90;;;16.70;87.50;;;;;;5104092;28;20112;-79
2023/08/01 08:48:28;;;;;;;597.72;562.05;;;16.50;88.50;;;;;;5109561;28;20561;-80
2023/08/01 08:50:57;;;;;;;1198.45;686.22;;;16.40;87.70;;;;;;5108389;28;20024;-78
2023/08/01 08:53:24;;;;;;;1175.70;665.55;;;16.40;86.90;;;;;;5108777;28;20024;-79
2023/08/01 08:55:50;;;;;;;1588.97;831.55;;;16.40;86.90;;;;;;5093125;28;20098;-80
2023/08/01 08:58:16;;;;;;;1577.97;823.33;;;16.40;84.70;;;;;;5089973;28;20489;-78
2023/08/01 09:00:43;;;;;;;601.17;563.80;;;16.50;84.90;;;;;;5109105;28;20520;-79
2023/08/01 09:03:09;;;;;;;566.08;529.88;;;16.30;87.10;;;;;;5109762;28;20061;-81
2023/08/01 09:05:48;;;;;;;597.67;548.05;;;15.40;92.20;;;;;;5110925;28;20139;-80
2023/08/01 09:08:21;;;;;;;375.40;359.40;;;14.80;94.20;;;;;;5109751;28;20038;-81
2023/08/01 09:10:47;;;;;;;382.75;360.45;;;14.80;96.80;;;;;;5107912;28;20059;-78
2023/08/01 09:13:14;;;;;;;406.52;388.67;;;15.10;96.70;;;;;;5109759;28;20039;-80
2023/08/01 09:15:43;;;;;;;354.77;333.42;;;15.30;98.10;;;;;;5107096;28;20035;-80
2023/08/01 09:18:09;;;;;;;321.63;308.80;;;15.20;97.10;;;;;;5107411;28;20153;-82
2023/08/01 09:20:48;;;;;;;349.73;332.17;;;15.40;98.20;;;;;;5110690;27;20103;-80
2023/08/01 09:23:15;;;;;;;280.77;267.92;;;15.30;97.10;;;;;;5110423;27;20031;-82
2023/08/01 09:25:41;;;;;;;345.55;330.27;;;15.20;97.40;;;;;;5109596;28;20111;-80
2023/08/01 09:28:21;;;;;;;185.07;177.23;;;15.20;97.90;;;;;;5108352;28;20023;-78
2023/08/01 09:30:49;;;;;;;167.23;159.18;;;15.20;98.30;;;;;;5110165;28;20039;-77
2023/08/01 09:33:15;;;;;;;270.33;254.77;;;15.30;99.20;;;;;;5088708;28;20024;-80
2023/08/01 09:35:41;;;;;;;160.57;153.30;;;15.00;98.60;;;;;;5109281;27;20127;-78
2023/08/01 09:38:07;;;;;;;201.02;190.02;;;15.10;98.80;;;;;;5106437;27;20533;-79
2023/08/01 09:40:37;;;;;;;190.68;178.95;;;15.00;98.80;;;;;;5089873;28;20038;-79
2023/08/01 09:43:02;;;;;;;177.93;170.10;;;15.00;98.50;;;;;;5090119;28;20510;-80
2023/08/01 09:45:28;;;;;;;106.28;101.30;;;15.00;99.40;;;;;;5108592;28;20035;-78
2023/08/01 09:47:53;;;;;;;143.85;138.02;;;15.00;99.00;;;;;;5109492;28;20544;-79
2023/08/01 09:50:23;;;;;;;147.57;141.10;;;15.20;98.70;;;;;;5089199;28;20047;-77
2023/08/01 09:52:52;;;;;;;149.13;141.05;;;15.30;99.00;;;;;;5108009;28;20051;-78
2023/08/01 09:55:32;;;;;;;143.43;137.50;;;15.50;98.70;;;;;;5107114;28;20055;-78
2023/08/01 09:57:59;;;;;;;158.43;151.63;;;15.50;98.50;;;;;;5106060;28;20043;-79
2023/08/01 10:00:27;;;;;;;420.45;382.17;;;15.50;98.40;;;;;;5106849;28;20382;-79
2023/08/01 10:02:53;;;;;;;249.00;230.15;;;15.40;97.60;;;;;;5101568;28;20059;-78
2023/08/01 10:05:20;;;;;;;336.08;317.85;;;15.30;97.50;;;;;;5109327;28;20123;-77
2023/08/01 10:07:48;;;;;;;240.07;225.77;;;15.30;98.70;;;;;;5107492;27;20531;-79
2023/08/01 10:10:15;;;;;;;140.45;135.02;;;15.20;98.40;;;;;;5091497;28;20027;-77
2023/08/01 10:12:45;;;;;;;191.43;182.02;;;15.40;98.30;;;;;;5092597;28;20081;-78
2023/08/01 10:15:11;;;;;;;180.90;173.70;;;15.50;98.40;;;;;;5106601;28;20027;-77
2023/08/01 10:17:37;;;;;;;280.27;255.88;;;15.50;98.50;;;;;;5106097;28;20031;-79
2023/08/01 10:20:04;;;;;;;198.68;189.40;;;15.50;98.00;;;;;;5106139;28;20028;-77
2023/08/01 10:22:31;;;;;;;392.02;363.55;;;15.50;98.20;;;;;;5108110;28;20401;-79
2023/08/01 10:24:57;;;;;;;142.75;137.25;;;15.40;97.80;;;;;;5085689;28;20036;-79
2023/08/01 10:27:23;;;;;;;159.52;153.23;;;15.50;98.90;;;;;;5090493;28;20028;-79
2023/08/01 10:30:00;;;;;;;205.75;196.93;;;15.50;98.90;;;;;;5105116;28;20031;-84
2023/08/01 10:32:33;;;;;;;213.30;202.32;;;15.70;99.10;;;;;;5098804;28;20035;-83
2023/08/01 10:34:59;;;;;;;205.40;196.98;;;15.70;99.30;;;;;;5102680;28;20023;-83
2023/08/01 10:37:25;;;;;;;177.50;169.75;;;15.70;99.10;;;;;;5106197;27;20035;-83
2023/08/01 10:40:00;;;;;;;165.60;159.43;;;15.70;99.20;;;;;;5086197;28;20493;-82
2023/08/01 10:42:38;;;;;;;174.07;166.73;;;15.50;98.70;;;;;;5107953;28;20115;-79
2023/08/01 10:45:04;;;;;;;163.68;157.57;;;15.70;99.30;;;;;;5108589;28;20506;-80
2023/08/01 10:47:31;;;;;;;198.23;189.70;;;15.80;99.60;;;;;;5107675;28;20040;-80
2023/08/01 10:49:57;;;;;;;179.18;171.55;;;16.10;98.50;;;;;;5109561;27;20089;-77
2023/08/01 10:52:29;;;;;;;174.85;167.55;;;16.60;99.00;;;;;;5090355;28;20431;-81
2023/08/01 10:55:02;;;;;;;340.13;310.23;;;16.80;99.90;;;;;;5107664;28;20024;-79
2023/08/01 10:57:29;;;;;;;265.67;251.65;;;17.10;99.70;;;;;;5102935;28;20120;-82
2023/08/01 10:59:56;;;;;;;261.10;248.82;;;17.30;98.90;;;;;;5105245;28;20028;-78
2023/08/01 11:02:31;;;;;;;398.13;371.02;;;17.70;99.90;;;;;;5105975;28;20066;-81
2023/08/01 11:05:05;;;;;;;408.17;388.70;;;17.40;97.30;;;;;;5089926;28;20031;-82
2023/08/01 11:07:31;;;;;;;467.20;442.50;;;17.80;99.60;;;;;;5106794;28;20074;-77
2023/08/01 11:10:08;;;;;;;458.42;429.63;;;17.50;98.50;;;;;;5106835;28;20024;-81
2023/08/01 11:12:35;;;;;;;490.55;459.10;;;17.50;97.70;;;;;;5107506;28;20413;-77
2023/08/01 11:15:02;;;;;;;477.92;451.77;;;17.20;98.30;;;;;;5086233;28;20051;-76
2023/08/01 11:17:28;;;;;;;422.90;404.13;;;17.00;98.70;;;;;;5103634;28;20035;-78
2023/08/01 11:20:02;;;;;;;521.15;487.52;;;17.10;99.90;;;;;;5088517;28;20027;-79
2023/08/01 11:22:27;;;;;;;509.02;480.23;;;16.80;99.60;;;;;;5105624;28;20573;-78
2023/08/01 11:24:54;;;;;;;418.88;401.55;;;17.00;99.90;;;;;;5105920;28;20122;-79
2023/08/01 11:27:20;;;;;;;335.23;321.10;;;17.10;99.90;;;;;;5073877;28;20410;-80
2023/08/01 11:29:46;;;;;;;371.48;355.40;;;17.80;99.90;;;;;;5108049;28;20028;-79
2023/08/01 11:32:13;;;;;;;412.98;395.48;;;18.10;99.90;;;;;;5087039;28;20035;-80
2023/08/01 11:34:44;;;;;;;382.85;358.80;;;18.10;99.90;;;;;;5106602;28;20396;-76
2023/08/01 11:37:20;;;;;;;441.52;420.85;;;17.90;98.80;;;;;;5109437;27;20035;-79
2023/08/01 11:39:47;;;;;;;496.23;473.33;;;17.60;99.50;;;;;;5109202;28;20042;-77
2023/08/01 11:42:16;;;;;;;452.27;432.45;;;17.60;99.90;;;;;;5107594;28;20107;-74
2023/08/01 11:44:43;;;;;;;478.13;456.23;;;17.70;99.90;;;;;;5109856;28;20123;-77
2023/08/01 11:47:17;;;;;;;516.58;492.35;;;17.70;99.90;;;;;;5104872;28;20507;-76
2023/08/01 11:49:47;;;;;;;521.70;498.50;;;17.70;99.30;;;;;;5108794;28;20020;-74
2023/08/01 11:52:27;;;;;;;529.30;504.02;;;18.00;99.90;;;;;;5107715;27;20062;-75
2023/08/01 11:54:54;;;;;;;524.22;499.83;;;17.90;98.80;;;;;;5110647;28;20084;-75
2023/08/01 11:57:21;;;;;;;1269.60;751.78;;;17.70;99.40;;;;;;5090199;28;20087;-75
2023/08/01 11:59:52;;;;;;;683.78;640.67;;;18.10;96.60;;;;;;5093574;28;20058;-75
2023/08/01 12:02:25;;;;;;;861.45;584.40;;;17.70;97.40;;;;;;5107019;28;20019;-78
2023/08/01 12:04:53;;;;;;;1999.90;999.90;;;17.50;95.10;;;;;;5092150;28;20028;-78